• Join FlightAware (Why Join?)
  • Login
  • US Flag 
10:17AM EDT


 

Airport Tracker/Info


-or-


 

Live Flight TrackerFlight Track Log ✈ DAL6225 ✈ 17-Apr-2013 ✈ KMSN - KLGA

Flight Track Log - Related Links

Times and Time Zones

All times are in EDT time to prevent confusion due to time zone crossing. See the DAL6225 flight status page for this flight to view local times or setup timezone preferences in your user account.

Time Position Orientation Groundspeed Altitude Reporting Facility
EDT Latitude Longitude Course Direction KTS MPH feet Rate Location/Type
08:35AM 43.1819 -89.3233 90° East 161 185 2,900  Level Chicago Center
08:36AM 43.1822 -89.2564 90° East 171 197 4,800 1,740 Climbing Chicago Center
08:37AM 43.1767 -89.1703 95° East 205 236 6,600 1,980 Climbing Chicago Center
08:38AM 43.1683 -89.0478 95° East 266 306 8,900 2,040 Climbing Chicago Center
08:39AM 43.1603 -88.9297 95° East 300 345 10,800 1,560 Climbing Chicago Center
08:40AM 43.1517 -88.7931 95° East 351 404 12,200 1,740 Climbing Chicago Center
08:41AM 43.1417 -88.6497 95° East 376 433 14,500 2,040 Climbing Chicago Center
08:42AM 43.1311 -88.5061 96° East 382 440 16,500 1,800 Climbing Chicago Center
08:43AM 43.1192 -88.3319 95° East 397 457 18,200 1,560 Climbing Chicago Center
08:44AM 43.1208 -88.1769 89° East 409 471 19,800 1,500 Climbing Chicago Center
08:45AM 43.1294 -88.0178 86° East 420 483 21,400 1,440 Climbing Chicago Center
08:46AM 43.1361 -87.8558 87° East 427 491 22,800 1,260 Climbing Chicago Center
08:47AM 43.1439 -87.6881 86° East 440 506 24,000 1,080 Climbing Chicago Center
08:48AM 43.1506 -87.5167 87° East 451 519 25,100 1,200 Climbing Chicago Center
08:49AM 43.1617 -87.3153 86° East 464 534 26,500 1,080 Climbing Chicago Center
08:50AM 43.1678 -87.1372 87° East 470 541 27,400 780 Climbing Chicago Center
08:51AM 43.1739 -86.9533 87° East 483 556 28,200 780 Climbing Chicago Center
08:52AM 43.1819 -86.7639 87° East 495 570 29,100 780 Climbing Chicago Center
08:54AM 43.1889 -86.5719 87° East 503 579 29,900 780 Climbing Chicago Center
08:55AM 43.1958 -86.3778 87° East 509 586 30,700 780 Climbing Chicago Center
08:56AM 43.2019 -86.1792 88° East 516 594 31,500 600 Climbing Chicago Center
08:57AM 43.2083 -85.9764 87° East 521 600 32,000 240 Climbing Chicago Center
08:58AM 43.2131 -85.7683 88° East 534 615 32,000 540 Level Chicago Center
08:59AM 43.2194 -85.5203 88° East 540 621 33,200 1,140 Climbing Chicago Center
09:00AM 43.2258 -85.3158 87° East 529 609 34,400 1,140 Climbing Chicago Center
09:00AM 43.2281 -85.2708 86° East 524 603 34,700 420 Climbing Cleveland Center
09:01AM 43.2317 -85.0744 88° East 513 590 35,000 120 Climbing Cleveland Center
09:02AM 43.2369 -84.8781 88° East 513 590 35,000  Level Cleveland Center
09:03AM 43.2353 -84.6928 91° East 518 596 35,000  Level Cleveland Center
09:04AM 43.2383 -84.4819 89° East 508 585 35,000  Level Cleveland Center
09:05AM 43.2428 -84.2856 88° East 508 585 35,000  Level Cleveland Center
09:06AM 43.2467 -84.0947 88° East 502 578 35,000  Level Cleveland Center
09:07AM 43.2481 -83.9122 89° East 517 595 35,000  Level Cleveland Center
09:08AM 43.2494 -83.7072 89° East 517 595 35,000  Level Cleveland Center
09:09AM 43.2506 -83.5019 90° East 522 601 35,000  Level Cleveland Center
09:10AM 43.2539 -83.2856 89° East 527 606 35,000  Level Cleveland Center
09:11AM 43.2542 -83.0858 90° East 527 606 35,000  Level Cleveland Center
09:12AM 43.2561 -82.8922 89° East 515 593 35,000  Level Cleveland Center
09:13AM 43.2536 -82.6897 91° East 515 593 35,000  Level Cleveland Center
09:14AM 43.2403 -82.5039 96° East 509 586 35,000  Level Cleveland Center
09:15AM 43.2167 -82.2833 98° East 510 587 35,000  Level Toronto Center
09:16AM 43.2000 -82.1000 97° East 500 575 35,000  Level Toronto Center
09:17AM 43.1833 -81.9167 97° East 500 575 35,000  Level Toronto Center
09:18AM 43.1833 -81.7167 90° East 500 575 35,000  Level Toronto Center
09:19AM 43.1667 -81.5333 97° East 500 575 35,000  Level Toronto Center
09:20AM 43.1500 -81.3500 97° East 500 575 35,000  Level Toronto Center
09:21AM 43.1333 -81.1333 96° East 490 564 35,000  Level Toronto Center
09:22AM 43.1167 -80.9833 99° East 490 564 35,000  Level Toronto Center
09:23AM 43.1167 -80.7667 90° East 510 587 35,000  Level Toronto Center
09:24AM 43.1000 -80.5667 96° East 520 598 35,000  Level Toronto Center
09:25AM 43.0833 -80.3833 97° East 520 598 35,000  Level Toronto Center
09:26AM 43.0667 -80.1833 96° East 510 587 35,000  Level Toronto Center
09:27AM 43.0500 -80.0000 97° East 500 575 35,000  Level Toronto Center
09:28AM 43.0333 -79.8167 97° East 500 575 35,000  Level Toronto Center
09:29AM 43.0167 -79.6333 97° East 500 575 35,000  Level Toronto Center
09:30AM 43.0000 -79.4500 97° East 500 575 35,000  Level Toronto Center
09:31AM 42.9833 -79.2167 95° East 510 587 35,000  Level Toronto Center
09:32AM 42.9667 -79.0333 97° East 520 598 35,000  Level Toronto Center
09:33AM 42.9500 -78.8667 98° East 520 598 35,000  Level Toronto Center
09:34AM 42.9397 -78.7511 97° East 511 588 35,000  Level Cleveland Center
09:35AM 42.9219 -78.5589 97° East 511 588 35,000  Level Cleveland Center
09:36AM 42.9017 -78.3611 98° East 517 595 35,000  Level Cleveland Center
09:37AM 42.8811 -78.1692 98° East 522 601 35,000  Level Cleveland Center
09:38AM 42.8603 -77.9772 98° East 516 594 35,000  Level Cleveland Center
09:39AM 42.8411 -77.7883 98° East 516 594 35,000  Level Cleveland Center
09:40AM 42.8150 -77.5744 99° East 521 600 35,000  Level Cleveland Center
09:41AM 42.7869 -77.3806 101° East 521 600 35,000  Level Cleveland Center
09:42AM 42.7586 -77.1953 102° East 521 600 35,000  Level Cleveland Center
09:42AM 42.7431 -77.0858 101° East 513 590 35,000  Level Boston Center
09:43AM 42.7175 -76.8917 100° East 527 606 35,000  Level Boston Center
09:44AM 42.6894 -76.7031 101° East 527 606 35,000  Level Boston Center
09:45AM 42.6611 -76.5092 101° East 522 601 35,000  Level Boston Center
09:46AM 42.6322 -76.3208 102° East 512 589 35,000 -240 Level Boston Center
09:47AM 42.6050 -76.1331 101° East 505 581 34,600 -600 Descending Boston Center
09:48AM 42.5758 -75.9394 101° East 505 581 33,800 -780 Descending Boston Center
09:50AM 42.5458 -75.7544 102° East 511 588 32,900 -1,440 Descending Boston Center
09:51AM 42.5083 -75.5300 103° East 506 582 30,800 -1,980 Descending Boston Center
09:52AM 42.4839 -75.3569 101° East 506 582 29,100 -1,740 Descending Boston Center
09:53AM 42.4425 -75.1806 108° East 501 577 27,400 -1,740 Descending Boston Center
09:54AM 42.3814 -75.0203 117° Southeast 490 564 25,600 -1,920 Descending Boston Center
09:55AM 42.3267 -74.8636 115° Southeast 469 540 23,600 -2,040 Descending Boston Center
09:56AM 42.2733 -74.7214 117° Southeast 451 519 21,600 -2,040 Descending Boston Center
09:57AM 42.2219 -74.5792 116° Southeast 437 503 19,600 -1,800 Descending Boston Center
09:58AM 42.1661 -74.4372 118° Southeast 426 490 18,000 -1,020 Descending Boston Center
09:59AM 42.0872 -74.2892 126° Southeast 436 502 17,600 -1,140 Descending Boston Center
10:00AM 41.9842 -74.2136 151° Southeast 419 482 15,800 -1,920 Descending Boston Center
10:01AM 41.8831 -74.1494 155° Southeast 410 472 13,800 -1,920 Descending Boston Center
10:02AM 41.7819 -74.0825 154° Southeast 404 465 12,000 -1,500 Descending Boston Center
10:03AM 41.6911 -74.0247 155° Southeast 380 437 10,900 -1,020 Descending Boston Center
10:04AM 41.6000 -73.9667 155° Southeast 314 361 9,900 -900 Descending New York TRACON
10:05AM 41.5167 -73.9167 156° South 319 367 9,000 -480 Descending New York TRACON
10:06AM 41.4333 -73.8667 156° South 299 344 9,000  Level New York TRACON
10:07AM 41.3667 -73.8167 151° Southeast 308 354 9,000  Level New York TRACON
10:08AM 41.3000 -73.7500 143° Southeast 314 361 9,000 -420 Level New York TRACON
10:09AM 41.2333 -73.7000 151° Southeast 293 337 8,200 -1,080 Descending New York TRACON
10:10AM 41.1667 -73.6333 143° Southeast 282 325 6,900 -1,320 Descending New York TRACON
10:11AM 41.0833 -73.6000 163° South 274 315 5,600 -1,380 Descending New York TRACON
10:12AM 41.0167 -73.6000 180° South 284 327 4,200 -840 Descending New York TRACON
10:13AM 40.9333 -73.6000 180° South 259 298 4,000 -120 Descending New York TRACON
10:14AM 40.8667 -73.6333 201° Southwest 260 299 4,000  Level New York TRACON
10:15AM 40.8000 -73.6667 201° Southwest 254 292 4,100  Climbing New York TRACON
10:16AM 40.7833 -73.7500 255° West 239 275 4,000 -60 Descending New York TRACON
10:17AM 40.7833 -73.8333 270° West 241 277 4,000  Level New York TRACON
10:18AM 40.7667 -73.9333 258° West 246 283 4,000  Level New York TRACON
10:19AM 40.7500 -74.0167 255° West 252 290 4,000  Level New York TRACON
10:20AM 40.7167 -74.0667 229° Southwest 229 264 4,000 -180 Level New York TRACON
10:21AM 40.6667 -74.0667 180° South 205 236 3,700 -780 Descending New York TRACON
10:22AM 40.6500 -74.0000 108° East 208 239 2,500 -600 Descending New York TRACON
10:23AM 40.6833 -73.9500 49° Northeast 178 205 2,500 -60 Level New York TRACON
10:24AM 40.7167 -73.9167 37° Northeast 147 169 2,400 -120 Descending New York TRACON